createdAt,value
2022-12-25T00:04:43.138Z,16.80
2022-12-25T00:14:56.110Z,17.10
2022-12-25T00:25:09.115Z,19.40
2022-12-25T00:35:22.100Z,18.00
2022-12-25T00:45:35.162Z,17.30
2022-12-25T00:55:48.106Z,17.40
2022-12-25T01:06:09.191Z,20.00
2022-12-25T01:16:24.169Z,20.70
2022-12-25T01:26:37.201Z,25.20
2022-12-25T01:36:57.170Z,24.30
2022-12-25T01:47:16.180Z,24.10
2022-12-25T01:57:40.160Z,25.40
2022-12-25T02:07:54.206Z,24.00
2022-12-25T02:18:10.188Z,22.50
2022-12-25T02:28:34.212Z,22.00
2022-12-25T02:39:11.185Z,18.30
2022-12-25T02:49:52.211Z,17.30
2022-12-25T03:00:25.191Z,17.00
2022-12-25T03:10:57.247Z,16.70
2022-12-25T03:21:29.191Z,16.40
2022-12-25T03:31:44.214Z,18.00
2022-12-25T03:42:19.269Z,16.80
2022-12-25T03:52:57.252Z,15.40
2022-12-25T04:03:28.400Z,15.50
2022-12-25T04:14:00.276Z,15.60
2022-12-25T04:24:32.310Z,17.20
2022-12-25T04:35:03.282Z,15.00
2022-12-25T04:45:15.311Z,15.85
2022-12-25T04:55:28.290Z,14.00
2022-12-25T05:05:41.323Z,15.10
2022-12-25T05:15:54.352Z,14.70
2022-12-25T05:26:07.297Z,15.90
2022-12-25T05:36:20.299Z,16.50
2022-12-25T05:46:33.389Z,17.10
2022-12-25T05:56:46.311Z,17.40
2022-12-25T06:06:59.376Z,17.00
2022-12-25T06:17:12.362Z,15.40
2022-12-25T06:27:25.359Z,15.10
2022-12-25T06:37:39.324Z,16.00
2022-12-25T06:47:52.373Z,16.60
2022-12-25T06:58:05.378Z,15.00
2022-12-25T07:08:18.390Z,14.50
2022-12-25T07:18:31.406Z,13.80
2022-12-25T07:28:44.445Z,14.70
2022-12-25T07:38:58.400Z,13.70
2022-12-25T07:49:18.406Z,16.80
2022-12-25T07:59:31.388Z,25.30
2022-12-25T08:09:44.448Z,29.90
2022-12-25T08:19:57.475Z,28.40
2022-12-25T08:30:10.484Z,26.90
2022-12-25T08:40:23.441Z,23.30
2022-12-25T08:50:42.467Z,23.70
2022-12-25T09:00:56.509Z,24.80
2022-12-25T09:11:15.445Z,26.30
2022-12-25T09:21:28.484Z,21.00
2022-12-25T09:31:41.455Z,20.70
2022-12-25T09:42:04.491Z,18.80
2022-12-25T09:52:45.477Z,22.00
2022-12-25T10:03:16.556Z,19.80
2022-12-25T10:13:44.494Z,16.30
2022-12-25T10:24:01.515Z,14.60
2022-12-25T10:34:14.566Z,15.00
2022-12-25T10:44:31.523Z,16.60
2022-12-25T10:54:44.531Z,15.50
2022-12-25T11:04:58.540Z,17.10
2022-12-25T11:15:50.579Z,17.60
2022-12-25T11:26:15.573Z,14.80
2022-12-25T11:36:28.544Z,13.40
2022-12-25T11:46:48.617Z,12.20
2022-12-25T11:57:03.594Z,12.10
2022-12-25T12:07:45.591Z,13.30
2022-12-25T12:17:58.606Z,13.60
2022-12-25T12:28:11.584Z,13.20
2022-12-25T12:38:28.623Z,11.40
2022-12-25T12:48:50.571Z,10.90
2022-12-25T12:59:03.638Z,10.20
2022-12-25T13:09:48.597Z,10.20
2022-12-25T13:20:08.640Z,10.20
2022-12-25T13:30:22.614Z,10.80
2022-12-25T13:40:35.651Z,12.40
2022-12-25T13:51:04.673Z,11.00
2022-12-25T14:01:19.846Z,9.50
2022-12-25T14:11:34.678Z,9.80
2022-12-25T14:21:56.649Z,10.20
2022-12-25T14:32:12.693Z,14.50
2022-12-25T14:42:29.663Z,30.30
2022-12-25T14:52:56.725Z,13.30
2022-12-25T15:03:11.845Z,15.90
2022-12-25T15:13:27.743Z,31.40
2022-12-25T15:23:40.673Z,22.50
2022-12-25T15:33:53.785Z,21.70
2022-12-25T15:44:06.717Z,41.00
2022-12-25T15:54:19.748Z,44.50
2022-12-25T16:04:33.763Z,42.90
2022-12-25T16:14:46.784Z,35.30
2022-12-25T16:24:59.736Z,29.00
2022-12-25T16:35:12.779Z,32.70
2022-12-25T16:45:25.768Z,36.80
2022-12-25T16:55:38.803Z,35.60
2022-12-25T17:05:51.765Z,33.60
2022-12-25T17:16:04.864Z,24.00
2022-12-25T17:26:17.784Z,23.40
2022-12-25T17:36:30.842Z,31.10
2022-12-25T17:46:43.786Z,33.50
2022-12-25T17:56:56.856Z,32.90
2022-12-25T18:07:10.815Z,32.80
2022-12-25T18:17:22.867Z,38.00
2022-12-25T18:27:35.795Z,38.10
2022-12-25T18:37:48.868Z,34.30
2022-12-25T18:48:02.855Z,33.40
2022-12-25T18:58:15.864Z,36.70
2022-12-25T19:08:28.840Z,35.00
2022-12-25T19:18:41.904Z,31.60
2022-12-25T19:28:54.859Z,30.60
2022-12-25T19:39:08.041Z,31.80
2022-12-25T19:49:27.910Z,33.30
2022-12-25T19:59:40.891Z,32.20
2022-12-25T20:09:53.941Z,33.70
2022-12-25T20:20:06.916Z,32.80
2022-12-25T20:30:19.914Z,30.30
2022-12-25T20:40:52.978Z,30.20
2022-12-25T20:51:22.970Z,31.70
2022-12-25T21:01:38.000Z,38.10
2022-12-25T21:11:50.997Z,35.80
2022-12-25T21:22:03.961Z,35.50
2022-12-25T21:32:34.981Z,32.80
2022-12-25T21:42:47.977Z,34.30
2022-12-25T21:53:07.002Z,33.20
2022-12-25T22:03:20.065Z,34.80
2022-12-25T22:13:50.993Z,38.00
2022-12-25T22:24:03.983Z,36.10
2022-12-25T22:34:17.045Z,35.20
2022-12-25T22:44:35.013Z,36.00
2022-12-25T22:54:48.031Z,38.60
2022-12-25T23:05:00.999Z,34.60
2022-12-25T23:15:14.052Z,34.90
2022-12-25T23:25:46.011Z,34.30
2022-12-25T23:35:59.070Z,35.90
2022-12-25T23:46:12.121Z,37.50
2022-12-25T23:56:25.048Z,36.60
